Time;durP1;ratioP1;P1;durP2;ratioP2;P2;SDS_P1;SDS_P2;PMS_P1;PMS_P2;Temp;Humidity;BMP_temperature;BMP_pressure;BME280_temperature;BME280_humidity;BME280_pressure;Samples;Min_cycle;Max_cycle;Signal;HPM_P1;HPM_P2
2023/03/08 00:01:25;;;;;;;16.60;7.70;;;2.20;99.90;;;;;;20908219;28;20036;-59
2023/03/08 00:11:28;;;;;;;15.88;7.53;;;2.50;99.90;;;;;;20907066;28;20494;-58
2023/03/08 00:21:30;;;;;;;13.43;7.38;;;2.60;99.90;;;;;;20906235;28;20028;-57
2023/03/08 00:31:31;;;;;;;14.35;7.53;;;3.00;99.90;;;;;;20904680;28;20067;-54
2023/03/08 00:41:32;;;;;;;14.32;7.57;;;3.10;99.90;;;;;;20905096;28;20032;-56
2023/03/08 00:51:34;;;;;;;18.60;7.03;;;3.30;99.90;;;;;;20904433;28;20372;-58
2023/03/08 01:01:35;;;;;;;14.13;7.28;;;3.00;99.90;;;;;;20902810;28;20049;-55
2023/03/08 01:11:38;;;;;;;15.63;7.88;;;3.00;99.90;;;;;;20903174;28;20057;-62
2023/03/08 01:21:40;;;;;;;12.40;6.85;;;3.10;99.90;;;;;;20903050;28;20475;-63
2023/03/08 01:31:42;;;;;;;11.55;6.85;;;3.20;99.90;;;;;;20902749;28;20037;-62
2023/03/08 01:41:43;;;;;;;17.20;7.32;;;3.40;99.90;;;;;;20902283;28;20390;-55
2023/03/08 01:52:11;;;;;;;16.20;7.78;;;3.50;99.90;;;;;;20900570;28;20551;-53
2023/03/08 02:02:13;;;;;;;15.43;7.80;;;3.50;99.90;;;;;;20897432;28;20049;-54
2023/03/08 02:12:15;;;;;;;13.77;7.25;;;3.40;99.90;;;;;;20899527;28;20049;-63
2023/03/08 02:22:17;;;;;;;11.93;6.97;;;3.40;99.90;;;;;;20915228;28;20032;-54
2023/03/08 02:32:21;;;;;;;15.70;7.32;;;3.40;99.90;;;;;;20915426;28;20052;-63
2023/03/08 02:42:22;;;;;;;17.23;7.85;;;3.40;99.90;;;;;;20914061;28;20033;-56
2023/03/08 02:52:24;;;;;;;17.92;8.63;;;3.10;99.90;;;;;;20913436;28;20037;-57
2023/03/08 03:02:26;;;;;;;16.88;8.77;;;2.70;99.90;;;;;;20913075;28;20025;-58
2023/03/08 03:12:28;;;;;;;15.88;8.82;;;2.30;99.90;;;;;;20910306;28;20049;-65
2023/03/08 03:22:30;;;;;;;14.05;6.78;;;1.90;99.90;;;;;;20911151;28;20070;-65
2023/03/08 03:32:32;;;;;;;14.63;6.57;;;1.80;99.90;;;;;;20909277;28;20040;-58
2023/03/08 03:42:34;;;;;;;15.75;6.95;;;1.70;99.90;;;;;;20908244;28;20568;-57
2023/03/08 03:52:43;;;;;;;11.70;5.70;;;1.30;99.90;;;;;;20907592;28;20519;-66
2023/03/08 04:02:45;;;;;;;19.40;8.15;;;1.10;99.90;;;;;;20907309;28;20033;-66
2023/03/08 04:12:51;;;;;;;19.75;9.60;;;1.10;99.90;;;;;;20905618;28;20140;-65
2023/03/08 04:22:54;;;;;;;21.88;10.18;;;0.70;99.90;;;;;;20904889;28;20482;-57
2023/03/08 04:33:02;;;;;;;14.45;7.25;;;0.70;99.90;;;;;;20904867;28;20032;-58
2023/03/08 04:43:16;;;;;;;15.25;5.72;;;0.80;99.90;;;;;;20903362;28;20082;-56
2023/03/08 04:53:18;;;;;;;16.33;8.05;;;1.20;99.90;;;;;;20904479;28;20037;-57
2023/03/08 05:03:20;;;;;;;14.23;7.03;;;1.20;99.90;;;;;;20903190;28;20178;-59
2023/03/08 05:13:22;;;;;;;21.40;9.13;;;1.00;99.90;;;;;;20901675;28;20045;-58
2023/03/08 05:23:25;;;;;;;16.13;8.30;;;0.70;99.90;;;;;;20901460;28;20082;-57
2023/03/08 05:33:28;;;;;;;22.58;8.43;;;0.20;99.90;;;;;;20901980;28;20079;-58
2023/03/08 05:43:30;;;;;;;24.45;9.43;;;-0.20;99.90;;;;;;20901093;28;20037;-56
2023/03/08 05:53:33;;;;;;;20.30;9.65;;;-0.30;99.90;;;;;;20893559;28;20029;-57
2023/03/08 06:03:37;;;;;;;21.58;10.57;;;-0.20;99.90;;;;;;20916680;28;20054;-66
2023/03/08 06:13:39;;;;;;;21.98;9.95;;;0.20;99.90;;;;;;20916187;28;20095;-65
2023/03/08 06:23:42;;;;;;;21.17;10.68;;;0.10;99.90;;;;;;20914394;28;20063;-57
2023/03/08 06:33:44;;;;;;;17.23;9.38;;;0.10;99.90;;;;;;20897622;28;20033;-65
2023/03/08 06:43:50;;;;;;;17.67;9.23;;;0.20;99.90;;;;;;20912942;28;20440;-59
2023/03/08 06:53:52;;;;;;;14.93;8.60;;;0.50;99.90;;;;;;20912038;28;20033;-59
2023/03/08 07:03:58;;;;;;;22.10;10.18;;;0.90;99.90;;;;;;20911637;28;20033;-54
2023/03/08 07:14:00;;;;;;;21.35;10.30;;;1.40;99.90;;;;;;20911739;28;20041;-63
2023/03/08 07:24:01;;;;;;;20.65;9.02;;;2.10;99.90;;;;;;20911120;28;20029;-62
2023/03/08 07:34:03;;;;;;;18.20;8.68;;;2.50;99.90;;;;;;20910962;28;20040;-62
2023/03/08 07:44:05;;;;;;;18.80;9.82;;;3.00;99.90;;;;;;20909705;28;20029;-63
2023/03/08 07:54:09;;;;;;;16.70;9.00;;;3.30;99.90;;;;;;20908523;28;20029;-63
2023/03/08 08:04:11;;;;;;;59.45;27.48;;;3.80;99.90;;;;;;20907623;28;20033;-54
2023/03/08 08:14:13;;;;;;;14.23;8.05;;;4.60;99.90;;;;;;20905706;28;20110;-62
2023/03/08 08:24:14;;;;;;;16.58;8.48;;;5.20;99.90;;;;;;20905928;28;20041;-53
2023/03/08 08:34:16;;;;;;;14.55;7.95;;;6.10;99.90;;;;;;20905983;28;20033;-56
2023/03/08 08:44:17;;;;;;;15.43;7.72;;;6.20;99.90;;;;;;20904790;28;20036;-53
2023/03/08 08:54:19;;;;;;;15.52;8.05;;;6.10;99.90;;;;;;20904028;28;20033;-63
2023/03/08 09:04:20;;;;;;;17.13;8.70;;;6.10;99.90;;;;;;20903930;28;20040;-61
2023/03/08 09:14:23;;;;;;;14.38;7.78;;;7.40;99.90;;;;;;20902893;28;20053;-54
2023/03/08 09:24:24;;;;;;;19.85;8.60;;;8.80;99.90;;;;;;20907653;28;20083;-60
2023/03/08 09:34:26;;;;;;;18.83;8.80;;;9.20;99.90;;;;;;20871246;28;20029;-58
2023/03/08 09:44:44;;;;;;;17.20;9.15;;;8.30;99.90;;;;;;20908928;28;20029;-57
2023/03/08 09:54:47;;;;;;;17.65;9.25;;;7.80;99.90;;;;;;20916854;28;20102;-55
2023/03/08 10:05:04;;;;;;;18.25;9.15;;;8.90;99.90;;;;;;20909685;28;20084;-57
2023/03/08 10:15:17;;;;;;;22.42;10.13;;;9.60;99.90;;;;;;20861182;28;20041;-55
2023/03/08 10:25:27;;;;;;;18.38;10.63;;;10.90;99.90;;;;;;20894412;28;20040;-57
2023/03/08 10:35:31;;;;;;;20.38;10.70;;;10.90;99.90;;;;;;20914548;28;20029;-54
2023/03/08 10:45:33;;;;;;;20.60;10.15;;;10.70;99.90;;;;;;20914081;28;20433;-51
2023/03/08 10:55:45;;;;;;;17.73;10.10;;;10.60;99.90;;;;;;20913058;28;20441;-54
2023/03/08 11:05:51;;;;;;;19.83;10.55;;;10.50;99.90;;;;;;20911055;28;20450;-55
2023/03/08 11:16:07;;;;;;;25.65;12.45;;;10.70;99.90;;;;;;20910508;28;20029;-57
2023/03/08 11:26:42;;;;;;;19.85;11.70;;;10.90;99.90;;;;;;20895567;28;20033;-50
2023/03/08 11:37:02;;;;;;;24.83;12.38;;;11.10;99.90;;;;;;20835136;28;20032;-56
2023/03/08 11:47:42;;;;;;;19.40;11.55;;;10.80;99.90;;;;;;20908501;28;20041;-55
2023/03/08 11:57:45;;;;;;;;;;;10.50;99.90;;;;;;20908950;28;20462;-57
2023/03/08 12:07:59;;;;;;;19.20;10.43;;;11.30;99.90;;;;;;20888560;28;19928;-58
2023/03/08 12:18:19;;;;;;;20.08;9.98;;;11.10;99.90;;;;;;20895603;28;20443;-53
2023/03/08 12:28:24;;;;;;;;;;;10.70;99.90;;;;;;20896706;28;20098;-54
2023/03/08 12:38:34;;;;;;;19.38;10.38;;;10.10;99.90;;;;;;20898223;28;19935;-55
2023/03/08 12:48:41;;;;;;;18.40;10.53;;;9.50;99.90;;;;;;20905099;28;20025;-55
2023/03/08 12:58:50;;;;;;;20.98;11.45;;;8.80;99.90;;;;;;20903789;28;20033;-55
2023/03/08 13:09:24;;;;;;;19.73;10.63;;;8.30;99.90;;;;;;20903766;28;20041;-60
2023/03/08 13:19:29;;;;;;;16.38;10.25;;;8.20;99.90;;;;;;20903490;28;20539;-55
2023/03/08 13:29:32;;;;;;;20.75;11.98;;;9.10;99.90;;;;;;20903895;28;20382;-51
2023/03/08 13:39:34;;;;;;;19.00;10.25;;;10.00;99.90;;;;;;20902277;28;20090;-52
2023/03/08 13:49:40;;;;;;;21.33;10.90;;;9.90;99.90;;;;;;20902352;28;20041;-53
2023/03/08 13:59:50;;;;;;;16.25;9.70;;;9.30;99.90;;;;;;20899470;28;20033;-57
2023/03/08 14:09:51;;;;;;;18.42;9.63;;;9.40;99.90;;;;;;20895320;28;20041;-56
2023/03/08 14:19:56;;;;;;;17.88;10.45;;;9.00;99.90;;;;;;20887564;28;20474;-58
2023/03/08 14:30:09;;;;;;;19.75;10.20;;;8.30;99.90;;;;;;20858021;28;20115;-58
2023/03/08 14:40:13;;;;;;;16.30;9.02;;;8.00;99.90;;;;;;20898064;28;20110;-61
2023/03/08 14:50:29;;;;;;;14.60;8.82;;;8.20;99.90;;;;;;20914319;28;20033;-61
2023/03/08 15:00:31;;;;;;;17.00;9.38;;;7.90;99.90;;;;;;20913115;28;20037;-60
2023/03/08 15:10:36;;;;;;;15.70;9.00;;;7.70;99.90;;;;;;20912315;28;20127;-61
2023/03/08 15:20:43;;;;;;;17.27;9.38;;;7.30;99.90;;;;;;20911844;28;20044;-61
2023/03/08 15:30:45;;;;;;;16.95;9.77;;;7.30;99.90;;;;;;20909756;28;20182;-61
2023/03/08 15:40:47;;;;;;;21.52;10.43;;;7.10;99.90;;;;;;20909661;28;20033;-61
2023/03/08 15:50:48;;;;;;;25.45;11.35;;;6.60;99.90;;;;;;20909021;28;20095;-60
2023/03/08 16:00:51;;;;;;;18.02;9.88;;;6.10;99.90;;;;;;20908827;28;20039;-60
2023/03/08 16:10:52;;;;;;;16.92;8.75;;;6.00;99.90;;;;;;20907460;28;20497;-60
2023/03/08 16:20:54;;;;;;;22.98;9.70;;;6.10;99.90;;;;;;20893711;28;20033;-59
2023/03/08 16:30:57;;;;;;;18.15;9.70;;;5.90;99.90;;;;;;20861810;28;20146;-58
2023/03/08 16:41:01;;;;;;;20.23;11.10;;;5.40;99.90;;;;;;20849675;28;20056;-59
2023/03/08 16:51:06;;;;;;;19.67;10.93;;;5.00;99.90;;;;;;20852918;28;20098;-59
2023/03/08 17:01:12;;;;;;;15.88;7.03;;;4.30;99.90;;;;;;20858897;28;20040;-59
2023/03/08 17:11:20;;;;;;;10.80;6.75;;;3.90;99.90;;;;;;20861737;28;20104;-57
2023/03/08 17:21:22;;;;;;;9.32;5.20;;;4.20;99.90;;;;;;20855277;28;20490;-56
2023/03/08 17:31:24;;;;;;;13.52;7.40;;;4.40;99.90;;;;;;20868801;28;20060;-52
2023/03/08 17:41:25;;;;;;;11.95;6.82;;;4.40;99.90;;;;;;20911493;28;20032;-49
2023/03/08 17:51:29;;;;;;;8.25;4.75;;;4.20;99.90;;;;;;20858268;28;20029;-58
2023/03/08 18:01:31;;;;;;;8.18;4.63;;;4.30;99.90;;;;;;20912967;28;20037;-57
2023/03/08 18:11:36;;;;;;;10.52;5.55;;;4.50;99.90;;;;;;20892109;28;20592;-48
2023/03/08 18:21:38;;;;;;;9.55;5.35;;;4.60;99.90;;;;;;20914857;28;20053;-50
2023/03/08 18:31:40;;;;;;;11.32;6.80;;;4.60;99.90;;;;;;20913534;28;20036;-45
2023/03/08 18:41:41;;;;;;;15.18;7.90;;;4.60;99.90;;;;;;20915046;28;20028;-51
2023/03/08 18:51:43;;;;;;;10.07;6.57;;;4.60;99.90;;;;;;20913014;28;20048;-50
2023/03/08 19:01:45;;;;;;;13.48;7.88;;;4.50;99.90;;;;;;20912488;28;20036;-47
2023/03/08 19:11:47;;;;;;;14.15;8.60;;;4.50;99.90;;;;;;20911345;28;20045;-45
2023/03/08 19:21:48;;;;;;;14.75;8.30;;;4.70;99.90;;;;;;20910600;28;20474;-48
2023/03/08 19:32:02;;;;;;;15.23;8.27;;;4.70;99.90;;;;;;20910467;28;20036;-50
2023/03/08 19:42:06;;;;;;;15.63;8.98;;;4.70;99.90;;;;;;20909360;28;20091;-50
2023/03/08 19:52:12;;;;;;;13.15;8.27;;;4.80;99.90;;;;;;20908440;28;20099;-50
2023/03/08 20:02:14;;;;;;;14.88;8.43;;;4.80;99.90;;;;;;20907692;28;20037;-52
2023/03/08 20:12:18;;;;;;;16.80;8.35;;;5.00;99.90;;;;;;20903651;28;20631;-49
2023/03/08 20:22:20;;;;;;;15.48;8.10;;;5.10;99.90;;;;;;20906312;28;20123;-48
2023/03/08 20:32:21;;;;;;;12.65;7.50;;;5.20;99.90;;;;;;20905632;28;20378;-52
2023/03/08 20:42:23;;;;;;;13.27;6.72;;;5.20;99.90;;;;;;20905043;28;20075;-49
2023/03/08 20:52:25;;;;;;;10.88;6.72;;;5.10;99.90;;;;;;20904089;28;20033;-49
2023/03/08 21:02:26;;;;;;;12.15;6.95;;;5.10;99.90;;;;;;20903870;28;20033;-47
2023/03/08 21:12:28;;;;;;;12.10;7.63;;;5.30;99.90;;;;;;20902463;28;20041;-46
2023/03/08 21:22:31;;;;;;;13.98;6.95;;;5.30;99.90;;;;;;20901932;28;20045;-47
2023/03/08 21:32:32;;;;;;;10.65;6.22;;;5.40;99.90;;;;;;20902377;28;20033;-48
2023/03/08 21:42:34;;;;;;;10.77;5.47;;;5.60;99.90;;;;;;20901925;28;20029;-44
2023/03/08 21:52:36;;;;;;;9.13;3.97;;;5.70;99.90;;;;;;20901271;28;20111;-45
2023/03/08 22:02:43;;;;;;;7.80;3.78;;;6.00;99.90;;;;;;20901321;28;20037;-45
2023/03/08 22:12:46;;;;;;;4.38;2.80;;;6.30;99.90;;;;;;20897508;28;20041;-47
2023/03/08 22:22:48;;;;;;;6.50;2.95;;;6.40;99.90;;;;;;20856853;28;20032;-50
2023/03/08 22:32:49;;;;;;;7.80;3.10;;;6.30;99.90;;;;;;20905003;28;20548;-52
2023/03/08 22:42:51;;;;;;;4.32;2.67;;;6.30;99.90;;;;;;20915266;28;20028;-49
2023/03/08 22:52:52;;;;;;;4.85;2.30;;;6.20;99.90;;;;;;20913422;28;20088;-49
2023/03/08 23:02:56;;;;;;;2.30;1.40;;;6.20;99.90;;;;;;20913883;28;20395;-47
2023/03/08 23:12:59;;;;;;;2.22;1.02;;;6.20;99.90;;;;;;20911597;28;20106;-48
2023/03/08 23:23:00;;;;;;;1.58;1.00;;;6.30;99.90;;;;;;20911988;28;20060;-47
2023/03/08 23:33:02;;;;;;;1.42;0.90;;;6.30;99.90;;;;;;20910405;28;20083;-48
2023/03/08 23:43:03;;;;;;;2.08;1.38;;;6.30;99.90;;;;;;20909070;28;20091;-48
2023/03/08 23:53:05;;;;;;;3.28;1.88;;;6.20;99.90;;;;;;20908473;28;20028;-48
